Time;durP1;ratioP1;P1;durP2;ratioP2;P2;SDS_P1;SDS_P2;PMS_P1;PMS_P2;Temp;Humidity;BMP_temperature;BMP_pressure;BME280_temperature;BME280_humidity;BME280_pressure;Samples;Min_cycle;Max_cycle;Signal;HPM_P1;HPM_P2
2022/01/16 00:00:40;;;;;;;137.77;46.17;;;3.10;99.90;;;;;;5962948;23;20447;-92
2022/01/16 00:05:58;;;;;;;134.75;46.90;;;3.10;99.90;;;;;;5998901;23;20058;-94
2022/01/16 00:08:24;;;;;;;124.20;46.22;;;3.10;99.90;;;;;;5973186;23;20125;-95
2022/01/16 00:10:50;;;;;;;137.00;47.55;;;3.20;99.90;;;;;;5949849;23;20026;-92
2022/01/16 00:13:23;;;;;;;128.27;46.05;;;3.20;99.90;;;;;;5944643;23;20491;-93
2022/01/16 00:15:49;;;;;;;121.22;43.40;;;3.10;99.90;;;;;;5972251;23;20033;-94
2022/01/16 00:18:24;;;;;;;111.50;42.05;;;3.10;99.90;;;;;;5939021;23;20326;-93
2022/01/16 00:20:51;;;;;;;106.75;41.15;;;3.10;99.90;;;;;;5968258;23;20069;-93
2022/01/16 00:23:36;;;;;;;110.90;40.38;;;3.00;99.90;;;;;;5977409;23;20442;-94
2022/01/16 00:26:02;;;;;;;96.93;36.70;;;3.00;99.90;;;;;;5973889;23;20114;-90
2022/01/16 00:28:28;;;;;;;86.78;35.92;;;3.00;99.90;;;;;;5965905;23;20795;-93
2022/01/16 00:30:54;;;;;;;87.18;36.45;;;2.90;99.90;;;;;;5968290;23;20019;-93
2022/01/16 00:33:20;;;;;;;86.68;36.72;;;2.90;99.90;;;;;;5959265;23;20111;-91
2022/01/16 00:35:52;;;;;;;89.53;37.30;;;2.90;99.90;;;;;;5936698;23;20369;-91
2022/01/16 00:38:18;;;;;;;88.30;36.10;;;2.90;99.90;;;;;;5975595;23;20093;-95
2022/01/16 00:40:46;;;;;;;76.85;34.67;;;2.90;99.90;;;;;;5938572;23;20819;-91
2022/01/16 00:43:16;;;;;;;76.20;34.97;;;2.80;99.90;;;;;;5935519;23;20485;-90
2022/01/16 00:45:44;;;;;;;76.72;34.60;;;2.80;99.90;;;;;;5936237;23;20074;-94
2022/01/16 00:48:10;;;;;;;76.95;35.08;;;2.80;99.90;;;;;;5934739;23;20018;-91
2022/01/16 00:50:39;;;;;;;79.72;35.80;;;2.80;99.90;;;;;;5932669;23;20372;-93
2022/01/16 00:53:05;;;;;;;82.80;34.70;;;2.80;99.90;;;;;;5958640;23;20023;-92
2022/01/16 00:55:32;;;;;;;81.03;35.67;;;2.80;99.90;;;;;;5938029;23;20022;-93
2022/01/16 00:57:59;;;;;;;77.75;33.50;;;2.80;99.90;;;;;;5964501;23;20023;-94
2022/01/16 01:00:27;;;;;;;91.25;36.47;;;2.70;99.90;;;;;;5955906;23;20026;-93
2022/01/16 01:02:56;;;;;;;91.82;36.33;;;2.70;99.90;;;;;;5955673;23;20018;-93
2022/01/16 01:05:29;;;;;;;92.90;36.45;;;2.70;99.90;;;;;;5964230;23;20117;-95
2022/01/16 01:07:58;;;;;;;92.55;37.28;;;2.70;99.90;;;;;;5964807;23;20416;-94
2022/01/16 01:10:35;;;;;;;88.32;35.95;;;2.70;99.90;;;;;;5971177;23;20533;-94
2022/01/16 01:13:32;;;;;;;91.82;35.83;;;2.80;99.90;;;;;;5964450;23;20053;-95
2022/01/16 01:16:15;;;;;;;85.90;36.25;;;2.80;99.90;;;;;;5961358;23;20682;-94
2022/01/16 01:18:43;;;;;;;88.38;38.08;;;2.70;99.90;;;;;;5945625;23;20134;-92
2022/01/16 01:21:27;;;;;;;84.30;35.05;;;2.70;99.90;;;;;;5967556;23;20712;-94
2022/01/16 01:23:57;;;;;;;88.35;36.97;;;2.70;99.90;;;;;;5969836;23;20034;-96
2022/01/16 01:26:52;;;;;;;90.38;35.58;;;2.70;99.90;;;;;;5945443;23;20019;-94
2022/01/16 01:30:00;;;;;;;88.38;38.28;;;2.70;99.90;;;;;;5948714;23;20022;-95
2022/01/16 01:32:30;;;;;;;82.47;34.50;;;2.60;99.90;;;;;;5966171;23;20026;-93
2022/01/16 01:35:38;;;;;;;89.10;37.40;;;2.70;99.90;;;;;;5972440;23;20022;-95
2022/01/16 01:38:27;;;;;;;86.38;36.70;;;2.70;99.90;;;;;;5942635;23;20454;-96
2022/01/16 01:54:34;;;;;;;84.40;37.35;;;2.70;99.90;;;;;;5845668;24;20087;-94
2022/01/16 01:57:06;;;;;;;88.03;38.08;;;2.60;99.90;;;;;;5873023;24;20032;-94
2022/01/16 02:00:19;;;;;;;;;;;;;;;;;;;;;
2022/01/16 02:11:01;;;;;;;;;;;;;;;;;;;;;
2022/01/16 02:36:46;;;;;;;96.90;38.33;;;2.60;99.90;;;;;;5961438;23;20410;-94
2022/01/16 02:39:14;;;;;;;96.93;38.38;;;2.60;99.90;;;;;;5912329;23;20347;-94
2022/01/16 02:41:43;;;;;;;99.10;38.65;;;2.50;99.90;;;;;;5933439;23;20565;-94
2022/01/16 02:46:55;;;;;;;91.55;37.25;;;2.60;99.90;;;;;;5968367;23;20082;-94
2022/01/16 02:52:44;;;;;;;102.85;37.92;;;2.50;99.90;;;;;;5974318;23;20030;-95
2022/01/16 02:55:13;;;;;;;114.28;38.38;;;2.50;99.90;;;;;;5949542;23;20030;-93
2022/01/16 02:57:58;;;;;;;114.85;41.30;;;2.40;99.90;;;;;;5954723;23;20676;-95
2022/01/16 03:00:39;;;;;;;115.15;39.00;;;2.50;99.90;;;;;;5926904;23;20061;-94
2022/01/16 03:03:17;;;;;;;121.85;39.03;;;2.50;99.90;;;;;;5920618;23;20019;-95
2022/01/16 03:05:57;;;;;;;128.00;39.45;;;2.50;99.90;;;;;;5945487;23;20019;-95
2022/01/16 03:09:07;;;;;;;144.07;42.05;;;2.50;99.90;;;;;;5961224;23;20040;-94
2022/01/16 03:11:50;;;;;;;156.77;45.03;;;2.40;99.90;;;;;;6001483;23;20509;-92
2022/01/16 03:14:38;;;;;;;;;;;;;;;;;;;;;
2022/01/16 03:17:51;;;;;;;165.95;43.58;;;2.50;99.90;;;;;;5999396;23;20023;-94
2022/01/16 03:23:33;;;;;;;181.25;44.38;;;2.50;99.90;;;;;;5982985;23;20029;-93
2022/01/16 03:26:17;;;;;;;184.75;46.15;;;2.50;99.90;;;;;;5965626;23;20494;-93
2022/01/16 03:28:54;;;;;;;168.07;46.10;;;2.50;99.90;;;;;;5977865;23;20014;-94
2022/01/16 03:31:22;;;;;;;177.27;45.10;;;2.50;99.90;;;;;;5949025;23;20063;-93
2022/01/16 03:33:50;;;;;;;203.15;47.78;;;2.50;99.90;;;;;;5949392;23;20022;-93
2022/01/16 03:36:26;;;;;;;195.40;46.30;;;2.50;99.90;;;;;;5954908;23;20018;-94
2022/01/16 03:39:06;;;;;;;202.60;48.38;;;2.50;99.90;;;;;;5976335;23;20028;-92
2022/01/16 03:41:40;;;;;;;209.10;49.25;;;2.50;99.90;;;;;;5983138;23;20041;-95
2022/01/16 03:44:36;;;;;;;193.55;47.40;;;2.60;99.90;;;;;;5947161;23;20454;-95
2022/01/16 03:47:28;;;;;;;203.23;46.80;;;2.60;99.90;;;;;;5952941;23;20022;-94
2022/01/16 03:49:54;;;;;;;192.90;45.78;;;2.60;99.90;;;;;;5968353;23;20116;-94
2022/01/16 03:52:20;;;;;;;204.82;48.10;;;2.60;99.90;;;;;;5947360;23;20026;-93
2022/01/16 03:54:48;;;;;;;201.10;48.63;;;2.70;99.90;;;;;;5976924;23;20342;-94
2022/01/16 03:57:29;;;;;;;208.30;49.30;;;2.70;99.90;;;;;;5950597;23;20025;-95
2022/01/16 03:59:58;;;;;;;189.73;45.83;;;2.70;99.90;;;;;;5976985;23;20022;-94
2022/01/16 04:02:24;;;;;;;183.82;44.72;;;2.70;99.90;;;;;;5971994;23;20396;-94
2022/01/16 04:04:50;;;;;;;214.15;50.88;;;2.70;99.90;;;;;;5977315;23;20375;-94
2022/01/16 04:07:24;;;;;;;216.20;50.40;;;2.80;99.90;;;;;;5972463;23;20018;-94
2022/01/16 04:09:52;;;;;;;191.93;46.72;;;2.80;99.90;;;;;;5974955;23;20038;-94
2022/01/16 04:12:22;;;;;;;183.45;48.63;;;2.90;99.90;;;;;;5946468;23;20018;-93
2022/01/16 04:17:21;;;;;;;183.90;45.70;;;2.80;99.90;;;;;;5993806;23;20030;-93
2022/01/16 04:19:48;;;;;;;189.40;49.60;;;2.80;99.90;;;;;;5974336;23;20439;-94
2022/01/16 04:22:14;;;;;;;188.02;46.70;;;2.90;99.90;;;;;;5973150;23;20029;-94
2022/01/16 04:24:47;;;;;;;191.07;48.53;;;2.80;99.90;;;;;;5997892;23;20363;-93
2022/01/16 04:27:13;;;;;;;187.07;47.53;;;2.80;99.90;;;;;;5974940;23;20745;-94
2022/01/16 04:29:43;;;;;;;208.95;50.83;;;2.90;99.90;;;;;;5973936;23;20449;-93
2022/01/16 04:32:27;;;;;;;196.25;49.10;;;2.90;99.90;;;;;;5974348;23;20168;-94
2022/01/16 04:35:17;;;;;;;;;;;;;;;;;;;;;
2022/01/16 04:37:46;;;;;;;195.20;48.67;;;2.90;99.90;;;;;;5997266;23;20492;-94
2022/01/16 04:40:16;;;;;;;174.95;48.70;;;2.90;99.90;;;;;;5979350;23;20029;-95
2022/01/16 04:45:36;;;;;;;190.23;48.90;;;2.90;99.90;;;;;;6002993;23;20758;-95
2022/01/16 04:48:08;;;;;;;172.88;47.17;;;2.90;99.90;;;;;;5979915;23;20745;-94
2022/01/16 04:50:34;;;;;;;166.98;47.20;;;3.00;99.90;;;;;;5976848;23;20409;-95
2022/01/16 04:53:03;;;;;;;166.75;47.05;;;3.00;99.90;;;;;;5981184;23;20472;-94
2022/01/16 04:55:45;;;;;;;192.57;48.50;;;3.00;99.90;;;;;;5985730;23;20501;-95
2022/01/16 04:58:14;;;;;;;181.93;50.28;;;3.00;99.90;;;;;;6005091;23;20592;-94
2022/01/16 05:00:40;;;;;;;169.77;47.85;;;3.00;99.90;;;;;;5979175;23;20026;-94
2022/01/16 05:03:15;;;;;;;174.23;49.63;;;3.00;99.90;;;;;;5980693;23;20387;-95
2022/01/16 05:05:50;;;;;;;178.80;49.42;;;3.00;99.90;;;;;;5983221;23;20022;-94
2022/01/16 05:08:42;;;;;;;184.30;48.80;;;3.00;99.90;;;;;;5961792;23;20479;-94
2022/01/16 05:11:24;;;;;;;161.20;46.92;;;3.00;99.90;;;;;;5985737;23;20129;-93
2022/01/16 05:16:42;;;;;;;173.25;47.90;;;3.00;99.90;;;;;;6004493;23;20473;-95
2022/01/16 05:19:37;;;;;;;171.02;47.72;;;3.00;99.90;;;;;;5964143;23;20022;-91
2022/01/16 05:22:03;;;;;;;147.35;46.00;;;3.00;99.90;;;;;;5968073;23;20019;-94
2022/01/16 05:24:40;;;;;;;168.32;47.65;;;3.00;99.90;;;;;;5983275;23;20789;-95
2022/01/16 05:27:18;;;;;;;179.43;49.35;;;3.00;99.90;;;;;;5981808;23;20015;-94
2022/01/16 05:29:46;;;;;;;168.63;48.90;;;3.00;99.90;;;;;;5973474;23;20589;-94
2022/01/16 05:32:21;;;;;;;168.48;49.00;;;3.00;99.90;;;;;;5979298;23;20300;-95
2022/01/16 05:34:47;;;;;;;168.60;48.58;;;3.10;99.90;;;;;;5960456;23;20910;-93
2022/01/16 05:37:13;;;;;;;171.73;49.42;;;3.10;99.90;;;;;;5955649;23;20125;-95
2022/01/16 05:39:40;;;;;;;170.30;50.92;;;3.10;99.90;;;;;;5958130;23;20426;-94
2022/01/16 05:42:32;;;;;;;167.32;50.35;;;3.10;99.90;;;;;;5961114;23;20022;-94
2022/01/16 05:45:04;;;;;;;172.57;51.10;;;3.10;99.90;;;;;;5970844;23;20405;-93
2022/01/16 05:47:35;;;;;;;175.10;50.58;;;3.10;99.90;;;;;;5985184;23;20057;-94
2022/01/16 05:52:58;;;;;;;180.82;49.90;;;3.10;99.90;;;;;;6000715;23;20033;-94
2022/01/16 05:55:37;;;;;;;165.75;50.92;;;3.20;99.90;;;;;;5984500;23;20393;-94
2022/01/16 05:58:26;;;;;;;164.45;49.92;;;3.20;99.90;;;;;;5983581;23;20418;-94
2022/01/16 06:00:52;;;;;;;173.80;50.78;;;3.20;99.90;;;;;;5904889;23;20022;-93
2022/01/16 06:03:21;;;;;;;168.73;51.13;;;3.20;99.90;;;;;;5955759;23;20353;-95
2022/01/16 06:05:49;;;;;;;170.70;50.00;;;3.20;99.90;;;;;;5979083;23;20467;-91
2022/01/16 06:11:39;;;;;;;161.60;50.25;;;3.20;99.90;;;;;;5945613;23;20027;-93
2022/01/16 06:14:05;;;;;;;177.85;53.15;;;3.30;99.90;;;;;;6005054;23;20033;-92
2022/01/16 06:16:35;;;;;;;174.80;51.75;;;3.30;99.90;;;;;;5958920;23;20335;-94
2022/01/16 06:19:07;;;;;;;181.73;50.40;;;3.30;99.90;;;;;;5958088;23;20098;-95
2022/01/16 06:21:36;;;;;;;168.60;51.00;;;3.30;99.90;;;;;;5982458;23;20026;-93
2022/01/16 06:24:03;;;;;;;170.73;50.35;;;3.30;99.90;;;;;;5956851;23;20532;-93
2022/01/16 06:26:34;;;;;;;172.40;49.80;;;3.30;99.90;;;;;;5980155;23;20026;-94
2022/01/16 06:29:09;;;;;;;172.18;49.63;;;3.40;99.90;;;;;;5956328;23;20061;-93
2022/01/16 06:31:36;;;;;;;156.77;48.05;;;3.40;99.90;;;;;;6006322;23;20018;-94
2022/01/16 06:34:14;;;;;;;158.75;48.10;;;3.30;99.90;;;;;;5977552;23;20078;-95
2022/01/16 06:36:40;;;;;;;165.73;47.70;;;3.40;99.90;;;;;;5980202;23;20026;-94
2022/01/16 06:39:13;;;;;;;157.30;51.63;;;3.30;99.90;;;;;;5982578;23;20450;-95
2022/01/16 06:41:42;;;;;;;153.77;46.33;;;3.40;99.90;;;;;;5974672;23;20350;-94
2022/01/16 06:44:08;;;;;;;157.70;46.00;;;3.40;99.90;;;;;;5977203;23;20026;-93
2022/01/16 06:46:34;;;;;;;158.00;47.95;;;3.40;99.90;;;;;;5977931;23;20018;-92
2022/01/16 06:49:06;;;;;;;160.98;47.28;;;3.50;99.90;;;;;;5974120;23;20334;-94
2022/01/16 06:51:45;;;;;;;155.93;47.60;;;3.40;99.90;;;;;;5981161;23;20377;-96
2022/01/16 06:54:17;;;;;;;152.13;47.05;;;3.40;99.90;;;;;;5977974;23;20227;-95
2022/01/16 06:56:46;;;;;;;145.88;46.03;;;3.40;99.90;;;;;;5982088;23;20308;-94
2022/01/16 06:59:12;;;;;;;141.35;45.50;;;3.50;99.90;;;;;;5981568;23;20026;-94
2022/01/16 07:01:41;;;;;;;141.40;47.05;;;3.40;99.90;;;;;;5958516;23;20022;-96
2022/01/16 07:04:09;;;;;;;149.15;45.40;;;3.40;99.90;;;;;;5958585;23;20028;-93
2022/01/16 07:06:38;;;;;;;143.27;44.90;;;3.40;99.90;;;;;;5981154;23;20110;-92
2022/01/16 07:09:04;;;;;;;144.48;46.72;;;3.50;99.90;;;;;;5974989;23;20037;-91
2022/01/16 07:11:31;;;;;;;149.38;46.20;;;3.50;99.90;;;;;;5957914;23;20022;-94
2022/01/16 07:13:56;;;;;;;148.57;45.22;;;3.50;99.90;;;;;;5981274;23;20026;-94
2022/01/16 07:16:48;;;;;;;153.80;45.30;;;3.50;99.90;;;;;;5982615;23;20297;-93
2022/01/16 07:19:17;;;;;;;159.98;47.03;;;3.50;99.90;;;;;;5986042;23;20050;-93
2022/01/16 07:21:46;;;;;;;152.70;45.70;;;3.50;99.90;;;;;;5982359;23;20550;-93
2022/01/16 07:24:16;;;;;;;148.95;46.55;;;3.60;99.90;;;;;;5976168;23;20762;-94
2022/01/16 07:29:31;;;;;;;141.57;45.80;;;3.60;99.90;;;;;;5998204;23;20033;-94
2022/01/16 07:32:03;;;;;;;156.93;46.03;;;3.50;99.90;;;;;;5955743;23;20337;-92
2022/01/16 07:34:44;;;;;;;154.82;46.75;;;3.50;99.90;;;;;;5987913;23;20528;-93
2022/01/16 07:37:13;;;;;;;164.23;47.38;;;3.60;99.90;;;;;;5983243;23;20316;-95
2022/01/16 07:39:41;;;;;;;162.60;48.45;;;3.60;99.90;;;;;;5978112;23;20060;-93
2022/01/16 07:42:08;;;;;;;158.20;49.55;;;3.50;99.90;;;;;;5972840;23;20022;-94
2022/01/16 07:44:33;;;;;;;159.40;48.42;;;3.60;99.90;;;;;;5981302;23;20514;-94
2022/01/16 07:47:09;;;;;;;148.75;48.05;;;3.60;99.90;;;;;;5957060;23;20116;-94
2022/01/16 07:49:37;;;;;;;150.63;46.30;;;3.60;99.90;;;;;;5982457;23;20029;-92
2022/01/16 07:52:07;;;;;;;159.32;48.80;;;3.60;99.90;;;;;;5978693;23;20085;-93
2022/01/16 07:54:33;;;;;;;146.50;47.22;;;3.70;99.90;;;;;;5980142;23;20026;-95
2022/01/16 07:56:59;;;;;;;151.68;47.97;;;3.70;99.90;;;;;;5956861;23;20883;-93
2022/01/16 07:59:40;;;;;;;161.80;48.88;;;3.70;99.90;;;;;;5976071;23;20022;-96
2022/01/16 08:02:06;;;;;;;155.75;49.22;;;3.60;99.90;;;;;;5956253;23;20706;-94
2022/01/16 08:04:37;;;;;;;156.27;48.47;;;3.70;99.90;;;;;;5952331;23;20105;-95
2022/01/16 08:07:10;;;;;;;159.20;48.13;;;3.90;99.90;;;;;;5961252;23;20306;-93
2022/01/16 08:09:43;;;;;;;166.23;49.67;;;3.80;99.90;;;;;;5983533;23;20082;-96
2022/01/16 08:12:11;;;;;;;167.13;48.92;;;3.90;99.90;;;;;;5982215;23;20026;-94
2022/01/16 08:14:37;;;;;;;146.82;48.60;;;3.80;99.90;;;;;;5975826;23;20109;-94
2022/01/16 08:17:03;;;;;;;146.93;48.08;;;3.90;99.90;;;;;;5976262;23;20218;-95
2022/01/16 08:19:41;;;;;;;155.43;48.78;;;3.90;99.90;;;;;;5976409;23;20448;-95
2022/01/16 08:22:10;;;;;;;151.75;46.92;;;3.90;99.90;;;;;;5976103;23;20018;-94
2022/01/16 08:24:43;;;;;;;141.70;49.10;;;3.90;99.90;;;;;;5950704;23;20444;-95
2022/01/16 08:27:19;;;;;;;150.95;50.25;;;4.10;99.90;;;;;;5958083;23;20115;-94
2022/01/16 08:29:50;;;;;;;147.82;48.13;;;4.00;99.90;;;;;;5985292;23;20046;-94
2022/01/16 08:32:21;;;;;;;142.43;50.08;;;4.10;99.90;;;;;;5955939;23;20052;-94
2022/01/16 08:34:58;;;;;;;143.30;49.90;;;4.10;99.90;;;;;;5977218;23;20026;-96
2022/01/16 08:37:30;;;;;;;138.82;50.08;;;4.10;99.90;;;;;;5965178;23;20054;-95
2022/01/16 08:40:03;;;;;;;133.38;48.55;;;4.10;99.90;;;;;;5981459;23;20227;-94
2022/01/16 08:42:31;;;;;;;135.05;50.70;;;4.10;99.90;;;;;;5974275;23;20030;-94
2022/01/16 08:45:00;;;;;;;137.25;48.90;;;4.20;99.90;;;;;;5980462;23;20145;-94
2022/01/16 08:47:28;;;;;;;142.75;50.20;;;4.20;99.90;;;;;;5960053;23;20115;-96
2022/01/16 08:49:58;;;;;;;143.57;50.10;;;4.20;99.90;;;;;;5979686;23;20052;-95
2022/01/16 08:52:28;;;;;;;133.65;51.08;;;4.30;99.90;;;;;;5980635;23;20033;-94
2022/01/16 08:55:10;;;;;;;136.60;51.38;;;4.30;99.90;;;;;;5978369;23;20337;-95
2022/01/16 08:57:36;;;;;;;128.23;48.88;;;4.40;99.90;;;;;;5980137;23;20022;-93
2022/01/16 09:00:20;;;;;;;127.72;50.15;;;4.40;99.90;;;;;;5966638;23;20565;-95
2022/01/16 09:02:49;;;;;;;120.00;48.55;;;4.50;99.90;;;;;;5976579;23;20314;-95
2022/01/16 09:05:17;;;;;;;123.40;47.60;;;4.50;99.90;;;;;;5982096;23;20384;-94
2022/01/16 09:08:10;;;;;;;128.73;50.25;;;4.60;99.90;;;;;;5975880;23;20085;-94
2022/01/16 09:10:41;;;;;;;124.18;49.15;;;4.50;99.90;;;;;;5979000;23;20037;-93
2022/01/16 09:13:16;;;;;;;117.00;47.92;;;4.60;99.90;;;;;;5981378;23;20082;-92
2022/01/16 09:15:52;;;;;;;115.25;48.10;;;4.60;99.90;;;;;;5953960;23;20037;-92
2022/01/16 09:18:18;;;;;;;120.55;52.05;;;4.70;99.90;;;;;;5998635;23;20026;-95
2022/01/16 09:20:48;;;;;;;118.47;50.35;;;4.60;99.90;;;;;;5980864;23;20028;-95
2022/01/16 09:23:23;;;;;;;112.57;49.10;;;4.70;99.90;;;;;;5979535;23;20026;-96
2022/01/16 09:25:49;;;;;;;109.88;48.00;;;4.70;99.90;;;;;;5976987;23;20050;-96
2022/01/16 09:28:18;;;;;;;112.15;49.78;;;4.70;99.90;;;;;;5949302;23;20056;-94
2022/01/16 09:30:44;;;;;;;107.35;51.65;;;4.70;99.90;;;;;;5977421;23;20439;-94
2022/01/16 09:33:15;;;;;;;120.15;51.10;;;4.80;99.90;;;;;;5976203;23;20536;-94
2022/01/16 09:35:44;;;;;;;111.75;51.03;;;4.80;99.90;;;;;;5973868;23;20062;-94
2022/01/16 09:38:12;;;;;;;110.32;50.92;;;4.90;99.90;;;;;;5952615;23;20121;-92
2022/01/16 09:40:52;;;;;;;112.10;51.80;;;4.90;99.90;;;;;;5954072;23;20533;-95
2022/01/16 09:43:26;;;;;;;111.47;52.55;;;4.90;99.90;;;;;;5977468;23;20022;-95
2022/01/16 09:45:53;;;;;;;108.45;49.92;;;5.00;99.90;;;;;;5984267;23;20072;-94
2022/01/16 09:48:34;;;;;;;107.60;49.97;;;5.00;99.90;;;;;;5983098;23;20485;-95
2022/01/16 09:51:00;;;;;;;113.93;51.55;;;5.10;99.90;;;;;;5958608;23;20101;-94
2022/01/16 09:53:26;;;;;;;108.22;51.85;;;5.10;99.90;;;;;;5952656;23;20180;-94
2022/01/16 09:55:52;;;;;;;101.63;49.15;;;5.10;99.90;;;;;;5977140;23;20022;-96
2022/01/16 09:58:26;;;;;;;96.70;48.72;;;5.10;99.90;;;;;;5971399;23;20073;-95
2022/01/16 10:00:55;;;;;;;102.30;49.80;;;5.20;99.90;;;;;;5966273;23;20278;-94
2022/01/16 10:03:38;;;;;;;94.15;46.85;;;5.20;99.90;;;;;;5967827;23;20027;-93
2022/01/16 10:06:38;;;;;;;98.40;48.47;;;5.20;99.90;;;;;;5952659;23;20022;-96
2022/01/16 10:09:16;;;;;;;100.40;53.00;;;5.30;99.90;;;;;;5956789;23;20080;-95
2022/01/16 10:12:18;;;;;;;91.90;47.83;;;5.40;99.90;;;;;;5983552;23;20100;-96
2022/01/16 10:14:56;;;;;;;87.30;45.83;;;5.40;99.90;;;;;;6000554;23;20022;-96
2022/01/16 10:18:18;;;;;;;86.63;48.15;;;5.40;99.90;;;;;;5987509;23;20097;-96
2022/01/16 10:20:50;;;;;;;85.43;45.42;;;5.40;99.90;;;;;;5954425;23;20129;-96
2022/01/16 10:23:48;;;;;;;86.20;48.50;;;5.50;99.90;;;;;;5942024;23;20054;-94
2022/01/16 10:26:28;;;;;;;82.43;44.85;;;5.50;99.90;;;;;;5893405;23;20087;-92
2022/01/16 10:29:20;;;;;;;83.20;44.25;;;5.50;99.90;;;;;;5986135;23;20023;-96
2022/01/16 10:31:52;;;;;;;73.93;45.00;;;5.60;99.90;;;;;;5977576;23;20080;-94
2022/01/16 10:34:34;;;;;;;78.28;43.13;;;5.60;99.90;;;;;;5980658;23;20347;-95
2022/01/16 10:37:17;;;;;;;78.90;44.30;;;5.60;99.90;;;;;;5973984;23;20026;-95
2022/01/16 10:40:01;;;;;;;77.13;44.20;;;5.60;99.90;;;;;;5978006;23;20029;-93
2022/01/16 10:42:32;;;;;;;73.47;43.83;;;5.70;99.90;;;;;;5973053;23;20644;-93
2022/01/16 10:45:10;;;;;;;71.70;42.78;;;5.70;99.90;;;;;;5987734;23;20037;-94
2022/01/16 10:48:06;;;;;;;65.32;41.22;;;5.70;99.90;;;;;;5993216;23;20015;-95
2022/01/16 10:50:47;;;;;;;65.70;40.75;;;5.80;99.90;;;;;;5973355;23;20410;-94
2022/01/16 10:53:21;;;;;;;69.80;39.47;;;5.80;99.90;;;;;;5977463;23;20123;-93
2022/01/16 10:55:51;;;;;;;64.63;40.53;;;5.80;99.90;;;;;;5958072;23;20022;-91
2022/01/16 10:58:37;;;;;;;64.68;40.25;;;5.80;99.90;;;;;;5986764;23;20101;-96
2022/01/16 11:01:16;;;;;;;63.83;40.05;;;5.80;99.90;;;;;;5991520;23;20365;-95
2022/01/16 11:03:49;;;;;;;64.68;39.30;;;5.90;99.90;;;;;;5987482;23;20759;-95
2022/01/16 11:06:21;;;;;;;62.05;38.97;;;5.90;99.90;;;;;;5990586;23;20019;-95
2022/01/16 11:08:58;;;;;;;60.03;36.92;;;5.90;99.90;;;;;;6014966;23;20026;-94
2022/01/16 11:11:25;;;;;;;54.45;34.25;;;6.00;99.90;;;;;;5961016;23;20524;-93
2022/01/16 11:13:54;;;;;;;55.80;35.53;;;5.90;99.90;;;;;;5986927;23;20033;-94
2022/01/16 11:16:28;;;;;;;56.95;35.25;;;6.00;99.90;;;;;;5982177;23;20026;-96
2022/01/16 11:18:55;;;;;;;53.90;34.72;;;6.00;99.90;;;;;;5958048;23;20022;-92
2022/01/16 11:21:33;;;;;;;54.67;35.10;;;6.00;99.90;;;;;;5986684;23;20026;-95
2022/01/16 11:26:46;;;;;;;49.25;32.45;;;6.00;99.90;;;;;;6003908;23;20073;-94
2022/01/16 11:29:13;;;;;;;50.83;32.28;;;6.00;99.90;;;;;;6002934;23;20073;-94
2022/01/16 11:31:43;;;;;;;49.88;31.88;;;6.00;99.90;;;;;;5983614;23;20023;-94
2022/01/16 11:34:12;;;;;;;45.25;31.00;;;6.00;99.90;;;;;;5954334;23;20073;-94
2022/01/16 11:36:40;;;;;;;47.15;30.48;;;6.10;99.90;;;;;;5959057;23;20027;-93
2022/01/16 11:39:13;;;;;;;41.45;28.92;;;6.10;99.90;;;;;;6007074;23;20646;-92
2022/01/16 11:41:59;;;;;;;42.70;27.88;;;6.10;99.90;;;;;;5983188;23;20056;-94
2022/01/16 11:44:30;;;;;;;43.00;28.17;;;6.20;99.90;;;;;;5957963;23;20463;-96
2022/01/16 11:47:06;;;;;;;41.00;27.38;;;6.20;99.90;;;;;;5982555;23;20030;-95
2022/01/16 11:52:53;;;;;;;;;;;;;;;;;;;;;
2022/01/16 11:55:36;;;;;;;40.97;27.00;;;6.20;99.90;;;;;;5981476;23;20018;-93
2022/01/16 11:58:07;;;;;;;39.78;27.08;;;6.20;99.90;;;;;;5981541;23;20018;-95
2022/01/16 12:00:45;;;;;;;37.30;25.65;;;6.20;99.90;;;;;;5978294;23;20546;-94
2022/01/16 12:03:36;;;;;;;37.10;25.33;;;6.20;99.90;;;;;;5951129;23;20033;-91
2022/01/16 12:06:51;;;;;;;37.28;23.88;;;6.30;99.90;;;;;;5957417;23;20775;-93
2022/01/16 12:09:46;;;;;;;34.90;23.63;;;6.30;99.90;;;;;;5963714;23;20018;-94
2022/01/16 12:12:15;;;;;;;34.42;23.50;;;6.30;99.90;;;;;;5985262;23;20038;-95
2022/01/16 12:14:49;;;;;;;34.63;23.67;;;6.30;99.90;;;;;;5977814;23;20387;-92
2022/01/16 12:17:28;;;;;;;33.60;22.33;;;6.30;99.90;;;;;;5998777;23;20033;-92
2022/01/16 12:20:22;;;;;;;34.33;22.88;;;6.40;99.90;;;;;;5984328;23;20759;-96
2022/01/16 12:23:28;;;;;;;33.20;21.80;;;6.30;99.90;;;;;;6001373;23;20022;-95
2022/01/16 12:26:40;;;;;;;32.10;22.20;;;6.40;99.90;;;;;;5933189;23;20081;-96
2022/01/16 12:29:11;;;;;;;32.83;21.92;;;6.40;99.90;;;;;;5985903;23;20952;-93
2022/01/16 12:31:39;;;;;;;31.05;22.17;;;6.40;99.90;;;;;;5969920;23;20057;-94
2022/01/16 12:34:28;;;;;;;35.42;22.65;;;6.40;99.90;;;;;;5956858;23;20371;-95
2022/01/16 12:37:01;;;;;;;32.35;22.70;;;6.40;99.90;;;;;;5985781;23;20401;-96
2022/01/16 12:39:27;;;;;;;32.30;22.15;;;6.40;99.90;;;;;;5972277;23;20022;-91
2022/01/16 12:42:01;;;;;;;33.45;22.73;;;6.40;99.90;;;;;;5947005;23;20409;-92
2022/01/16 12:44:34;;;;;;;33.40;21.58;;;6.40;99.90;;;;;;5946671;23;20030;-95
2022/01/16 12:47:13;;;;;;;33.38;21.48;;;6.40;99.90;;;;;;5975588;23;20369;-88
2022/01/16 12:49:42;;;;;;;29.98;21.60;;;6.40;99.90;;;;;;5976930;23;20018;-92
2022/01/16 12:52:14;;;;;;;33.70;23.02;;;6.40;99.90;;;;;;5962163;23;20049;-94
2022/01/16 12:54:48;;;;;;;32.05;21.92;;;6.50;99.90;;;;;;5954889;23;20089;-92
2022/01/16 12:57:29;;;;;;;30.00;21.42;;;6.50;99.90;;;;;;5986622;23;20760;-93
2022/01/16 12:59:55;;;;;;;30.52;22.98;;;6.50;99.90;;;;;;5971392;23;20026;-95
2022/01/16 13:02:24;;;;;;;29.00;21.70;;;6.60;99.90;;;;;;5977631;23;20481;-94
2022/01/16 13:05:08;;;;;;;32.95;23.52;;;6.50;99.90;;;;;;5979492;23;20023;-95
2022/01/16 13:07:42;;;;;;;30.48;21.90;;;6.60;99.90;;;;;;5949981;23;20368;-93
2022/01/16 13:10:11;;;;;;;32.38;22.73;;;6.50;99.90;;;;;;5939556;23;20482;-95
2022/01/16 13:12:36;;;;;;;31.95;22.30;;;6.60;99.90;;;;;;5949227;23;20117;-96
2022/01/16 13:15:13;;;;;;;;;;;;;;;;;;;;;
2022/01/16 13:17:44;;;;;;;35.60;22.85;;;6.60;99.90;;;;;;5982161;23;20053;-95
2022/01/16 13:20:29;;;;;;;32.38;22.00;;;6.60;99.90;;;;;;5977002;23;20339;-95
2022/01/16 13:22:56;;;;;;;32.03;21.92;;;6.70;99.90;;;;;;5949054;23;20706;-96
2022/01/16 13:25:31;;;;;;;31.67;21.50;;;6.60;99.90;;;;;;5962735;23;20046;-93
2022/01/16 13:28:31;;;;;;;32.80;22.08;;;6.60;99.90;;;;;;5938104;23;20015;-96
2022/01/16 13:30:57;;;;;;;29.65;21.48;;;6.70;99.90;;;;;;5952962;23;20027;-96
2022/01/16 13:33:41;;;;;;;28.73;20.98;;;6.70;99.90;;;;;;5950548;23;20065;-96
2022/01/16 13:36:22;;;;;;;30.60;21.70;;;6.70;99.90;;;;;;5968323;23;20026;-96
2022/01/16 13:39:10;;;;;;;32.90;22.02;;;6.70;99.90;;;;;;5950094;23;20046;-95
2022/01/16 13:41:54;;;;;;;31.92;20.65;;;6.70;99.90;;;;;;5931325;23;20344;-96
2022/01/16 13:44:29;;;;;;;32.05;21.60;;;6.80;99.90;;;;;;5932755;23;20457;-92
2022/01/16 13:46:58;;;;;;;30.48;22.10;;;6.80;99.90;;;;;;5949294;23;20028;-92
2022/01/16 13:49:52;;;;;;;;;;;;;;;;;;;;;
2022/01/16 13:52:37;;;;;;;35.92;21.70;;;6.80;99.90;;;;;;5973823;23;20030;-93
2022/01/16 13:55:13;;;;;;;33.92;21.58;;;6.80;99.90;;;;;;5948977;23;20019;-95
2022/01/16 13:57:42;;;;;;;30.63;22.98;;;6.80;99.90;;;;;;5952481;23;20022;-94
2022/01/16 14:00:19;;;;;;;33.92;22.73;;;6.80;99.90;;;;;;5957818;23;20030;-96
2022/01/16 14:02:48;;;;;;;34.58;21.67;;;6.80;99.90;;;;;;5940791;23;20022;-96
2022/01/16 14:05:33;;;;;;;30.13;22.27;;;6.80;99.90;;;;;;5973480;23;20356;-96
2022/01/16 14:08:16;;;;;;;34.65;22.05;;;6.80;99.90;;;;;;5930982;23;20747;-96
2022/01/16 14:10:45;;;;;;;33.40;22.13;;;6.80;99.90;;;;;;5950757;23;20023;-96
2022/01/16 14:13:18;;;;;;;31.92;22.42;;;6.80;99.90;;;;;;5951735;23;20335;-96
2022/01/16 14:16:04;;;;;;;34.28;21.77;;;6.80;99.90;;;;;;5953195;23;20062;-94
2022/01/16 14:24:09;;;;;;;35.53;21.92;;;6.80;99.90;;;;;;5947852;23;20105;-96
2022/01/16 14:27:07;;;;;;;34.00;22.17;;;6.90;99.90;;;;;;5941660;23;20106;-96
2022/01/16 14:29:39;;;;;;;35.70;22.50;;;6.90;99.90;;;;;;5928078;23;20074;-96
2022/01/16 14:32:14;;;;;;;37.78;22.98;;;6.90;99.90;;;;;;5949776;23;20837;-96
2022/01/16 14:34:58;;;;;;;36.03;23.08;;;6.90;99.90;;;;;;5948231;23;20448;-96
2022/01/16 14:37:45;;;;;;;32.55;22.05;;;6.90;99.90;;;;;;5951229;23;20489;-96
2022/01/16 14:40:38;;;;;;;36.72;23.55;;;6.90;99.90;;;;;;5959575;23;20055;-96
2022/01/16 14:43:36;;;;;;;36.85;23.25;;;6.90;99.90;;;;;;5956415;23;20472;-96
2022/01/16 14:46:56;;;;;;;36.45;22.92;;;6.90;99.90;;;;;;5972959;23;20742;-96